createdAt,value
2023-03-15T00:00:29.492Z,81.45
2023-03-15T00:02:59.873Z,81.72
2023-03-15T00:05:31.777Z,81.72
2023-03-15T00:08:04.538Z,81.99
2023-03-15T00:10:35.111Z,81.96
2023-03-15T00:13:06.372Z,81.97
2023-03-15T00:15:41.189Z,82.08
2023-03-15T00:18:14.182Z,82.08
2023-03-15T00:20:46.026Z,81.87
2023-03-15T00:23:17.299Z,81.87
2023-03-15T00:25:50.748Z,81.89
2023-03-15T00:28:21.668Z,81.86
2023-03-15T00:31:06.650Z,82.19
2023-03-15T00:33:37.125Z,82.73
2023-03-15T00:36:08.549Z,82.84
2023-03-15T00:38:41.781Z,82.84
2023-03-15T00:41:33.126Z,82.71
2023-03-15T00:44:04.096Z,82.69
2023-03-15T00:46:34.957Z,82.51
2023-03-15T00:49:05.465Z,83.44
2023-03-15T00:51:37.454Z,83.08
2023-03-15T00:54:09.684Z,83.74
2023-03-15T00:56:40.465Z,83.74
2023-03-15T00:59:10.707Z,82.78
2023-03-15T01:01:42.438Z,82.95
2023-03-15T01:04:13.675Z,82.37
2023-03-15T01:06:44.604Z,83.04
2023-03-15T01:09:15.037Z,83.12
2023-03-15T01:11:45.989Z,82.83
2023-03-15T01:14:17.173Z,83.15
2023-03-15T01:16:48.238Z,83.42
2023-03-15T01:19:18.642Z,83.42
2023-03-15T01:21:49.073Z,83.02
2023-03-15T01:24:19.838Z,83.26
2023-03-15T01:26:50.291Z,83.26
2023-03-15T01:29:20.498Z,83.29
2023-03-15T01:31:51.536Z,83.71
2023-03-15T01:34:21.870Z,84.13
2023-03-15T01:36:52.764Z,83.74
2023-03-15T01:39:23.617Z,84.01
2023-03-15T01:41:54.716Z,84.03
2023-03-15T01:44:25.275Z,84.25
2023-03-15T01:46:55.734Z,84.25
2023-03-15T01:49:33.949Z,84.30
2023-03-15T01:52:13.876Z,85.21
2023-03-15T01:54:56.720Z,84.60
2023-03-15T01:57:36.446Z,84.71
2023-03-15T02:00:16.156Z,84.57
2023-03-15T02:02:55.796Z,84.11
2023-03-15T02:05:29.500Z,83.90
2023-03-15T02:08:02.033Z,83.89
2023-03-15T02:10:39.481Z,84.02
2023-03-15T02:13:12.497Z,83.90
2023-03-15T02:15:44.926Z,83.90
2023-03-15T02:18:16.495Z,85.07
2023-03-15T02:21:06.785Z,85.07
2023-03-15T02:23:37.635Z,84.03
2023-03-15T02:26:28.799Z,84.35
2023-03-15T02:29:02.889Z,84.15
2023-03-15T02:31:32.313Z,84.01
2023-03-15T02:34:03.276Z,84.04
2023-03-15T02:36:35.467Z,84.04
2023-03-15T02:39:18.345Z,83.76
2023-03-15T02:41:51.722Z,84.16
2023-03-15T02:44:37.068Z,84.68
2023-03-15T02:47:12.897Z,84.98
2023-03-15T02:49:46.517Z,84.28
2023-03-15T02:52:16.995Z,84.55
2023-03-15T02:54:47.984Z,84.71
2023-03-15T02:57:20.556Z,84.47
2023-03-15T02:59:52.392Z,83.75
2023-03-15T03:02:23.595Z,83.75
2023-03-15T03:04:53.967Z,83.84
2023-03-15T03:07:24.437Z,83.91
2023-03-15T03:09:55.152Z,84.87
2023-03-15T03:12:25.904Z,85.11
2023-03-15T03:14:56.863Z,85.02
2023-03-15T03:17:28.766Z,85.58
2023-03-15T03:20:00.937Z,85.45
2023-03-15T03:22:32.636Z,85.45
2023-03-15T03:27:42.008Z,85.84
2023-03-15T03:30:14.580Z,85.78
2023-03-15T03:32:45.066Z,86.59
2023-03-15T03:35:16.239Z,86.59
2023-03-15T03:37:46.909Z,86.98
2023-03-15T03:40:18.561Z,87.44
2023-03-15T03:42:50.229Z,88.59
2023-03-15T03:45:20.557Z,88.55
2023-03-15T03:47:51.028Z,89.63
2023-03-15T03:50:21.750Z,89.88
2023-03-15T03:52:53.943Z,90.06
2023-03-15T03:55:24.638Z,90.19
2023-03-15T03:57:55.104Z,90.19
2023-03-15T04:00:25.517Z,91.21
2023-03-15T04:02:56.289Z,91.21
2023-03-15T04:05:26.597Z,91.25
2023-03-15T04:07:57.470Z,89.22
2023-03-15T04:10:28.792Z,89.48
2023-03-15T04:12:59.654Z,89.55
2023-03-15T04:15:30.183Z,90.22
2023-03-15T04:18:00.602Z,89.13
2023-03-15T04:20:31.491Z,88.55
2023-03-15T04:23:02.351Z,88.66
2023-03-15T04:25:34.130Z,89.05
2023-03-15T04:28:05.401Z,89.05
2023-03-15T04:30:35.946Z,88.09
2023-03-15T04:33:07.217Z,87.54
2023-03-15T04:35:39.369Z,86.94
2023-03-15T04:38:10.742Z,86.84
2023-03-15T04:40:41.693Z,87.04
2023-03-15T04:43:12.033Z,87.67
2023-03-15T04:45:43.065Z,88.48
2023-03-15T04:48:13.712Z,88.03
2023-03-15T04:50:44.764Z,88.76
2023-03-15T04:53:15.868Z,90.26
2023-03-15T04:55:46.970Z,91.25
2023-03-15T04:58:17.839Z,92.24
2023-03-15T05:00:48.891Z,92.15
2023-03-15T05:03:19.357Z,90.32
2023-03-15T05:05:50.168Z,89.69
2023-03-15T05:08:20.721Z,89.23
2023-03-15T05:10:52.480Z,86.85
2023-03-15T05:13:23.088Z,86.85
2023-03-15T05:15:56.849Z,86.33
2023-03-15T05:18:30.389Z,84.40
2023-03-15T05:21:03.052Z,84.40
2023-03-15T05:23:36.885Z,85.54
2023-03-15T05:26:09.246Z,83.86
2023-03-15T05:28:39.795Z,83.86
2023-03-15T05:31:10.635Z,82.76
2023-03-15T05:33:45.644Z,82.76
2023-03-15T05:36:16.832Z,81.10
2023-03-15T05:38:52.533Z,82.46
2023-03-15T05:41:25.144Z,82.46
2023-03-15T05:44:00.221Z,79.72
2023-03-15T05:46:32.441Z,79.56
2023-03-15T05:49:07.209Z,79.56
2023-03-15T05:51:51.463Z,80.02
2023-03-15T05:54:24.276Z,80.02
2023-03-15T05:56:59.389Z,80.33
2023-03-15T05:59:32.251Z,80.42
2023-03-15T06:02:02.816Z,81.20
2023-03-15T06:04:33.948Z,81.67
2023-03-15T06:07:04.860Z,81.62
2023-03-15T06:09:36.053Z,81.62
2023-03-15T06:12:06.820Z,81.58
2023-03-15T06:15:06.114Z,82.26
2023-03-15T06:20:45.979Z,82.67
2023-03-15T06:23:16.572Z,83.65
2023-03-15T06:25:47.092Z,83.65
2023-03-15T06:28:17.986Z,85.66
2023-03-15T06:30:49.113Z,86.32
2023-03-15T06:33:19.428Z,86.32
2023-03-15T06:35:49.913Z,86.31
2023-03-15T06:38:21.296Z,88.11
2023-03-15T06:40:51.884Z,88.16
2023-03-15T06:43:25.419Z,88.59
2023-03-15T06:45:56.636Z,87.50
2023-03-15T06:48:29.952Z,87.04
2023-03-15T06:51:00.552Z,86.52
2023-03-15T06:53:31.184Z,86.74
2023-03-15T06:56:02.123Z,86.08
2023-03-15T06:58:33.141Z,86.08
2023-03-15T07:01:03.722Z,85.79
2023-03-15T07:03:38.914Z,84.80
2023-03-15T07:06:10.140Z,84.80
2023-03-15T07:08:41.382Z,84.45
2023-03-15T07:11:13.409Z,84.47
2023-03-15T07:13:44.863Z,84.58
2023-03-15T07:16:15.643Z,84.72
2023-03-15T07:18:48.634Z,84.93
2023-03-15T07:21:20.262Z,84.12
2023-03-15T07:23:51.902Z,83.39
2023-03-15T07:26:23.035Z,83.71
2023-03-15T07:28:53.557Z,83.41
2023-03-15T07:31:30.226Z,81.82
2023-03-15T07:34:01.954Z,81.33
2023-03-15T07:36:34.189Z,82.86
2023-03-15T07:39:05.772Z,82.36
2023-03-15T07:41:36.376Z,83.08
2023-03-15T07:44:09.787Z,82.47
2023-03-15T07:46:41.283Z,83.25
2023-03-15T07:49:11.881Z,82.92
2023-03-15T07:52:09.233Z,82.92
2023-03-15T07:54:42.963Z,81.35
2023-03-15T07:57:14.234Z,81.68
2023-03-15T07:59:51.149Z,83.14
2023-03-15T08:02:28.502Z,82.88
2023-03-15T08:04:59.888Z,82.01
2023-03-15T08:07:30.724Z,82.55
2023-03-15T08:10:01.964Z,82.27
2023-03-15T08:12:32.762Z,82.41
2023-03-15T08:15:03.239Z,82.33
2023-03-15T08:17:43.091Z,81.72
2023-03-15T08:20:32.197Z,82.32
2023-03-15T08:23:08.413Z,80.68
2023-03-15T08:25:39.918Z,80.02
2023-03-15T08:28:11.549Z,80.02
2023-03-15T08:30:51.780Z,78.37
2023-03-15T08:33:24.507Z,78.71
2023-03-15T08:36:07.919Z,79.75
2023-03-15T08:38:38.579Z,78.53
2023-03-15T08:41:09.322Z,78.53
2023-03-15T08:43:39.819Z,77.16
2023-03-15T08:46:10.494Z,77.10
2023-03-15T08:48:46.446Z,77.16
2023-03-15T08:51:27.695Z,77.42
2023-03-15T08:54:02.746Z,76.33
2023-03-15T08:56:35.557Z,77.25
2023-03-15T08:59:11.388Z,76.65
2023-03-15T09:01:45.395Z,76.23
2023-03-15T09:04:16.656Z,76.23
2023-03-15T09:06:48.192Z,75.30
2023-03-15T09:09:19.229Z,75.52
2023-03-15T09:11:53.028Z,74.96
2023-03-15T09:14:23.572Z,76.42
2023-03-15T09:16:54.795Z,76.01
2023-03-15T09:19:27.216Z,75.26
2023-03-15T09:22:10.766Z,75.26
2023-03-15T09:24:30.331Z,74.93
2023-03-15T09:27:00.865Z,75.43
2023-03-15T09:29:31.758Z,75.94
2023-03-15T09:32:02.568Z,75.94
2023-03-15T09:34:39.948Z,75.35
2023-03-15T09:37:05.927Z,76.26
2023-03-15T09:39:36.908Z,76.26
2023-03-15T09:42:21.170Z,75.83
2023-03-15T09:45:01.372Z,74.25
2023-03-15T09:47:44.011Z,74.25
2023-03-15T09:50:17.849Z,74.41
2023-03-15T09:52:51.836Z,75.25
2023-03-15T09:55:25.295Z,75.47
2023-03-15T09:58:06.588Z,75.71
2023-03-15T10:00:41.840Z,75.60
2023-03-15T10:03:46.163Z,77.10
2023-03-15T10:06:25.907Z,78.62
2023-03-15T10:09:02.157Z,78.07
2023-03-15T10:11:44.398Z,78.20
2023-03-15T10:14:21.814Z,78.18
2023-03-15T10:17:18.146Z,77.48
2023-03-15T10:20:02.319Z,78.23
2023-03-15T10:22:58.270Z,78.87
2023-03-15T10:25:32.479Z,78.75
2023-03-15T10:28:11.634Z,77.96
2023-03-15T10:30:48.259Z,78.45
2023-03-15T10:33:34.928Z,77.06
2023-03-15T10:36:20.573Z,77.02
2023-03-15T10:38:52.196Z,77.14
2023-03-15T10:44:21.294Z,78.00
2023-03-15T10:47:21.579Z,78.37
2023-03-15T10:49:47.577Z,78.37
2023-03-15T10:52:45.459Z,79.29
2023-03-15T10:55:33.076Z,80.31
2023-03-15T10:58:19.079Z,77.66
2023-03-15T11:00:52.754Z,77.66
2023-03-15T11:03:25.762Z,77.94
2023-03-15T11:05:59.285Z,77.88
2023-03-15T11:08:44.080Z,78.95
2023-03-15T11:11:19.028Z,77.46
2023-03-15T11:14:00.447Z,75.65
2023-03-15T11:16:36.109Z,75.92
2023-03-15T11:19:15.290Z,76.58
2023-03-15T11:21:47.247Z,76.86
2023-03-15T11:24:24.590Z,76.46
2023-03-15T11:26:57.655Z,77.43
2023-03-15T11:29:36.203Z,75.89
2023-03-15T11:32:16.939Z,76.61
2023-03-15T11:34:59.937Z,76.63
2023-03-15T11:37:33.438Z,76.89
2023-03-15T11:40:12.098Z,77.20
2023-03-15T11:42:59.234Z,77.80
2023-03-15T11:45:38.470Z,77.45
2023-03-15T11:48:32.513Z,78.65
2023-03-15T11:51:08.084Z,76.49
2023-03-15T11:53:50.623Z,77.26
2023-03-15T11:56:45.677Z,77.26
2023-03-15T11:59:08.883Z,77.75
2023-03-15T12:01:48.536Z,78.80
2023-03-15T12:04:43.270Z,78.28
2023-03-15T12:07:25.155Z,78.28
2023-03-15T12:10:06.963Z,77.80
2023-03-15T12:12:39.193Z,77.80
2023-03-15T12:15:21.581Z,78.34
2023-03-15T12:18:08.624Z,79.54
2023-03-15T12:24:34.584Z,78.31
2023-03-15T12:27:19.262Z,78.78
2023-03-15T12:29:55.216Z,78.78
2023-03-15T12:32:31.233Z,78.89
2023-03-15T12:35:10.398Z,78.26
2023-03-15T12:37:49.990Z,79.09
2023-03-15T12:40:26.212Z,79.63
2023-03-15T12:42:59.237Z,79.48
2023-03-15T12:45:37.857Z,79.19
2023-03-15T12:48:11.483Z,79.96
2023-03-15T12:50:48.189Z,79.46
2023-03-15T12:53:34.214Z,79.34
2023-03-15T12:56:19.806Z,80.02
2023-03-15T12:59:12.589Z,80.05
2023-03-15T13:01:43.593Z,79.29
2023-03-15T13:04:18.081Z,79.38
2023-03-15T13:07:09.241Z,79.56
2023-03-15T13:09:51.336Z,79.44
2023-03-15T13:16:29.649Z,80.17
2023-03-15T13:19:21.975Z,80.52
2023-03-15T13:22:14.708Z,79.83
2023-03-15T13:25:06.521Z,80.24
2023-03-15T13:27:47.805Z,80.24
2023-03-15T13:30:35.690Z,81.28
2023-03-15T13:33:12.752Z,81.28
2023-03-15T13:35:48.245Z,80.86
2023-03-15T13:39:07.689Z,79.70
2023-03-15T13:41:37.470Z,79.46
2023-03-15T13:44:23.549Z,80.21
2023-03-15T13:46:55.251Z,80.49
2023-03-15T13:49:33.390Z,81.50
2023-03-15T13:52:07.968Z,81.50
2023-03-15T13:54:39.542Z,80.22
2023-03-15T13:57:15.812Z,80.84
2023-03-15T13:59:56.802Z,79.83
2023-03-15T14:02:30.491Z,79.89
2023-03-15T14:05:06.369Z,81.10
2023-03-15T14:07:42.574Z,80.93
2023-03-15T14:10:44.342Z,79.71
2023-03-15T14:13:24.964Z,79.71
2023-03-15T14:16:04.551Z,80.29
2023-03-15T14:18:41.344Z,80.73
2023-03-15T14:21:19.380Z,80.03
2023-03-15T14:23:53.504Z,80.03
2023-03-15T14:26:29.087Z,80.14
2023-03-15T14:29:09.200Z,80.08
2023-03-15T14:31:52.452Z,80.04
2023-03-15T14:34:37.961Z,80.36
2023-03-15T14:37:11.837Z,81.03
2023-03-15T14:39:43.051Z,81.09
2023-03-15T14:42:15.001Z,80.93
2023-03-15T14:44:52.116Z,82.46
2023-03-15T14:47:25.328Z,81.77
2023-03-15T14:50:02.204Z,81.26
2023-03-15T14:52:33.142Z,81.60
2023-03-15T14:55:05.908Z,81.64
2023-03-15T14:57:41.275Z,81.64
2023-03-15T15:00:15.066Z,81.23
2023-03-15T15:02:49.780Z,81.80
2023-03-15T15:05:28.926Z,81.39
2023-03-15T15:08:15.346Z,81.34
2023-03-15T15:10:49.900Z,81.48
2023-03-15T15:13:24.041Z,81.58
2023-03-15T15:15:57.311Z,82.18
2023-03-15T15:18:31.293Z,82.18
2023-03-15T15:21:06.858Z,83.22
2023-03-15T15:23:57.346Z,81.84
2023-03-15T15:26:23.775Z,82.66
2023-03-15T15:29:04.912Z,81.45
2023-03-15T15:31:43.270Z,81.54
2023-03-15T15:34:16.777Z,81.74
2023-03-15T15:36:53.712Z,82.73
2023-03-15T15:43:08.637Z,81.25
2023-03-15T15:45:39.891Z,82.10
2023-03-15T15:48:13.329Z,81.49
2023-03-15T15:50:47.843Z,81.56
2023-03-15T15:53:19.450Z,81.56
2023-03-15T15:55:50.135Z,82.60
2023-03-15T15:58:22.982Z,82.70
2023-03-15T16:00:55.706Z,82.85
2023-03-15T16:03:28.110Z,83.43
2023-03-15T16:06:02.434Z,83.91
2023-03-15T16:11:34.282Z,84.15
2023-03-15T16:14:05.553Z,84.15
2023-03-15T16:16:36.210Z,84.01
2023-03-15T16:19:06.929Z,84.80
2023-03-15T16:21:45.071Z,85.38
2023-03-15T16:24:19.232Z,85.29
2023-03-15T16:26:58.292Z,84.92
2023-03-15T16:29:42.346Z,84.79
2023-03-15T16:32:33.358Z,84.90
2023-03-15T16:34:56.303Z,84.81
2023-03-15T16:37:35.835Z,85.29
2023-03-15T16:40:07.092Z,85.29
2023-03-15T16:42:50.541Z,85.33
2023-03-15T16:45:25.985Z,85.93
2023-03-15T16:48:03.280Z,85.81
2023-03-15T16:50:40.070Z,86.15
2023-03-15T16:53:12.890Z,86.78
2023-03-15T16:55:46.219Z,86.78
2023-03-15T16:58:21.366Z,86.62
2023-03-15T17:00:58.762Z,86.62
2023-03-15T17:03:28.920Z,86.51
2023-03-15T17:06:00.582Z,86.38
2023-03-15T17:08:33.761Z,85.27
2023-03-15T17:11:09.013Z,85.61
2023-03-15T17:13:45.009Z,85.61
2023-03-15T17:16:16.417Z,86.37
2023-03-15T17:18:49.449Z,86.37
2023-03-15T17:21:24.485Z,86.18
2023-03-15T17:24:08.873Z,85.95
2023-03-15T17:26:41.972Z,87.44
2023-03-15T17:29:15.634Z,87.70
2023-03-15T17:31:47.267Z,87.02
2023-03-15T17:34:28.257Z,87.22
2023-03-15T17:36:58.997Z,87.56
2023-03-15T17:39:33.240Z,87.83
2023-03-15T17:42:06.836Z,88.34
2023-03-15T17:44:41.613Z,88.09
2023-03-15T17:47:20.804Z,88.87
2023-03-15T17:50:05.142Z,88.87
2023-03-15T17:53:02.596Z,87.46
2023-03-15T17:55:35.545Z,88.00
2023-03-15T17:58:18.507Z,88.00
2023-03-15T18:00:57.990Z,87.41
2023-03-15T18:03:28.792Z,87.61
2023-03-15T18:06:00.184Z,87.62
2023-03-15T18:08:31.994Z,87.28
2023-03-15T18:11:22.295Z,87.28
2023-03-15T18:13:55.657Z,87.54
2023-03-15T18:16:27.044Z,87.92
2023-03-15T18:19:00.905Z,87.92
2023-03-15T18:21:35.077Z,87.57
2023-03-15T18:24:26.692Z,87.83
2023-03-15T18:26:59.664Z,88.21
2023-03-15T18:29:33.468Z,88.37
2023-03-15T18:32:06.666Z,88.31
2023-03-15T18:34:39.892Z,88.31
2023-03-15T18:37:13.417Z,88.29
2023-03-15T18:39:45.069Z,87.17
2023-03-15T18:42:15.995Z,87.17
2023-03-15T18:44:47.762Z,88.69
2023-03-15T18:47:25.494Z,88.69
2023-03-15T18:50:04.453Z,89.64
2023-03-15T18:52:30.155Z,89.84
2023-03-15T18:55:38.088Z,89.84
2023-03-15T18:58:16.347Z,88.87
2023-03-15T19:00:58.443Z,88.87
2023-03-15T19:03:41.034Z,88.95
2023-03-15T19:06:26.427Z,88.76
2023-03-15T19:15:22.324Z,89.47
2023-03-15T19:17:54.215Z,89.47
2023-03-15T19:20:32.671Z,87.90
2023-03-15T19:23:04.651Z,88.93
2023-03-15T19:25:35.598Z,88.51
2023-03-15T19:28:07.628Z,87.93
2023-03-15T19:30:39.109Z,88.07
2023-03-15T19:33:10.157Z,89.06
2023-03-15T19:35:44.728Z,89.19
2023-03-15T19:38:15.716Z,89.27
2023-03-15T19:40:49.069Z,89.07
2023-03-15T19:43:20.088Z,89.07
2023-03-15T19:45:51.254Z,88.58
2023-03-15T19:48:22.528Z,88.16
2023-03-15T19:50:53.008Z,87.91
2023-03-15T19:53:23.442Z,87.91
2023-03-15T19:55:54.168Z,87.01
2023-03-15T19:58:25.440Z,87.01
2023-03-15T20:00:56.051Z,87.30
2023-03-15T20:03:29.102Z,87.53
2023-03-15T20:06:11.495Z,87.36
2023-03-15T20:08:43.039Z,87.36
2023-03-15T20:11:14.764Z,87.46
2023-03-15T20:13:46.180Z,87.46
2023-03-15T20:16:16.838Z,87.52
2023-03-15T20:18:50.712Z,88.30
2023-03-15T20:21:21.122Z,87.78
2023-03-15T20:23:52.030Z,87.42
2023-03-15T20:26:27.182Z,87.67
2023-03-15T20:28:59.950Z,88.10
2023-03-15T20:31:31.288Z,88.11
2023-03-15T20:34:02.799Z,89.43
2023-03-15T20:36:34.066Z,89.22
2023-03-15T20:39:04.627Z,88.51
2023-03-15T20:41:36.274Z,88.39
2023-03-15T20:44:08.000Z,88.65
2023-03-15T20:46:39.053Z,89.17
2023-03-15T20:49:10.208Z,89.37
2023-03-15T20:51:41.307Z,89.78
2023-03-15T20:54:11.628Z,89.13
2023-03-15T20:56:42.635Z,89.20
2023-03-15T20:59:12.963Z,89.20
2023-03-15T21:01:43.334Z,89.84
2023-03-15T21:04:14.861Z,89.79
2023-03-15T21:06:45.316Z,92.01
2023-03-15T21:09:15.845Z,93.42
2023-03-15T21:11:46.335Z,93.21
2023-03-15T21:14:16.834Z,92.58
2023-03-15T21:16:48.384Z,91.60
2023-03-15T21:19:19.577Z,91.61
2023-03-15T21:21:50.165Z,92.48
2023-03-15T21:24:21.028Z,93.04
2023-03-15T21:26:53.746Z,94.22
2023-03-15T21:29:24.824Z,93.62
2023-03-15T21:31:55.333Z,93.62
2023-03-15T21:34:26.528Z,94.81
2023-03-15T21:36:56.987Z,94.04
2023-03-15T21:39:27.505Z,93.70
2023-03-15T21:42:03.153Z,95.25
2023-03-15T21:44:38.788Z,95.86
2023-03-15T21:47:09.616Z,96.75
2023-03-15T21:49:40.458Z,96.55
2023-03-15T21:52:12.571Z,96.05
2023-03-15T21:54:44.917Z,96.83
2023-03-15T21:57:15.253Z,96.32
2023-03-15T21:59:46.336Z,96.79
2023-03-15T22:02:17.866Z,96.88
2023-03-15T22:04:48.979Z,96.51
2023-03-15T22:07:20.092Z,96.82
2023-03-15T22:09:50.468Z,96.82
2023-03-15T22:12:22.191Z,95.55
2023-03-15T22:15:04.813Z,95.55
2023-03-15T22:17:26.098Z,95.80
2023-03-15T22:19:59.305Z,95.70
2023-03-15T22:22:30.040Z,95.85
2023-03-15T22:25:00.515Z,96.86
2023-03-15T22:27:33.051Z,97.05
2023-03-15T22:30:03.986Z,97.05
2023-03-15T22:32:35.469Z,96.95
2023-03-15T22:35:09.599Z,96.75
2023-03-15T22:37:39.995Z,96.75
2023-03-15T22:40:13.326Z,96.63
2023-03-15T22:42:44.248Z,96.50
2023-03-15T22:45:15.619Z,97.01
2023-03-15T22:47:46.884Z,97.12
2023-03-15T22:50:17.749Z,96.91
2023-03-15T22:52:49.423Z,96.68
2023-03-15T22:55:20.238Z,96.27
2023-03-15T22:57:50.836Z,96.38
2023-03-15T23:00:24.530Z,95.95
2023-03-15T23:02:55.159Z,95.97
2023-03-15T23:05:26.040Z,95.47
2023-03-15T23:07:56.526Z,95.47
2023-03-15T23:10:27.408Z,95.61
2023-03-15T23:12:58.157Z,95.75
2023-03-15T23:15:29.980Z,95.62
2023-03-15T23:18:00.813Z,95.62
2023-03-15T23:20:31.354Z,95.55
2023-03-15T23:23:02.359Z,95.55
2023-03-15T23:25:35.443Z,95.75
2023-03-15T23:28:06.633Z,95.75
2023-03-15T23:30:40.133Z,95.70
2023-03-15T23:33:10.669Z,96.15
2023-03-15T23:35:41.199Z,96.17
2023-03-15T23:38:11.780Z,94.57
2023-03-15T23:40:42.803Z,96.35
2023-03-15T23:43:13.317Z,96.91
2023-03-15T23:45:44.594Z,97.08
2023-03-15T23:48:16.642Z,97.12
2023-03-15T23:50:47.083Z,97.12
2023-03-15T23:53:18.123Z,97.36
2023-03-15T23:55:48.986Z,96.33
2023-03-15T23:58:19.851Z,95.54
